Time;durP1;ratioP1;P1;durP2;ratioP2;P2;SDS_P1;SDS_P2;PMS_P1;PMS_P2;Temp;Humidity;BMP_temperature;BMP_pressure;BME280_temperature;BME280_humidity;BME280_pressure;Samples;Min_cycle;Max_cycle;Signal;HPM_P1;HPM_P2
2022/06/21 00:01:08;;;;;;;0.00;0.00;;;12.40;99.90;;;;;;5019898;28;20525;-60
2022/06/21 00:03:34;;;;;;;0.00;0.00;;;12.40;99.90;;;;;;5019463;28;20089;-60
2022/06/21 00:05:59;;;;;;;0.00;0.00;;;12.30;99.90;;;;;;5020111;28;20316;-59
2022/06/21 00:08:32;;;;;;;0.00;0.00;;;12.40;99.90;;;;;;5019334;28;20038;-59
2022/06/21 00:11:00;;;;;;;0.00;0.00;;;12.30;99.90;;;;;;5035433;28;20131;-59
2022/06/21 00:13:33;;;;;;;0.00;0.00;;;12.30;99.90;;;;;;5019907;28;20475;-59
2022/06/21 00:16:06;;;;;;;0.00;0.00;;;12.30;99.90;;;;;;5019147;28;20041;-61
2022/06/21 00:18:35;;;;;;;0.00;0.00;;;12.40;99.90;;;;;;5018949;28;20443;-59
2022/06/21 00:21:01;;;;;;;0.00;0.00;;;12.40;99.90;;;;;;5020011;28;20042;-60
2022/06/21 00:23:29;;;;;;;0.00;0.00;;;12.40;99.90;;;;;;5018169;28;20721;-60
2022/06/21 00:25:55;;;;;;;0.00;0.00;;;12.50;99.90;;;;;;5019617;28;20034;-60
2022/06/21 00:28:21;;;;;;;0.00;0.00;;;12.50;99.90;;;;;;5019791;28;20386;-60
2022/06/21 00:30:49;;;;;;;0.00;0.00;;;12.50;99.90;;;;;;5019966;28;20048;-59
2022/06/21 00:33:18;;;;;;;0.00;0.00;;;12.50;99.90;;;;;;5018338;28;20108;-58
2022/06/21 00:35:46;;;;;;;0.00;0.00;;;12.60;99.90;;;;;;5020153;28;20033;-59
2022/06/21 00:38:14;;;;;;;0.00;0.00;;;12.60;99.90;;;;;;5019784;28;20045;-60
2022/06/21 00:40:40;;;;;;;0.00;0.00;;;12.60;99.90;;;;;;5018698;28;20044;-59
2022/06/21 00:43:16;;;;;;;0.00;0.00;;;12.60;99.90;;;;;;5019574;28;20033;-60
2022/06/21 00:45:45;;;;;;;0.00;0.00;;;12.70;99.90;;;;;;5029733;28;20136;-59
2022/06/21 00:48:19;;;;;;;0.00;0.00;;;12.70;99.90;;;;;;5019254;28;20052;-60
2022/06/21 00:50:53;;;;;;;0.00;0.00;;;12.70;99.90;;;;;;5019822;28;20551;-60
2022/06/21 00:53:31;;;;;;;0.00;0.00;;;12.70;99.90;;;;;;5019237;28;20041;-59
2022/06/21 00:56:04;;;;;;;0.00;0.00;;;12.70;99.90;;;;;;5018128;28;20079;-59
2022/06/21 00:58:31;;;;;;;0.00;0.00;;;12.60;99.90;;;;;;5018947;28;20534;-60
2022/06/21 01:01:05;;;;;;;0.00;0.00;;;12.60;99.90;;;;;;5018655;28;20045;-59
2022/06/21 01:03:41;;;;;;;0.00;0.00;;;12.50;99.90;;;;;;5018337;28;20053;-59
2022/06/21 01:06:14;;;;;;;0.00;0.00;;;12.50;99.90;;;;;;5018918;28;20397;-59
2022/06/21 01:08:45;;;;;;;0.00;0.00;;;12.50;99.90;;;;;;5018368;28;20413;-60
2022/06/21 01:11:21;;;;;;;0.00;0.00;;;12.50;99.90;;;;;;5019245;28;20050;-59
2022/06/21 01:13:50;;;;;;;0.00;0.00;;;12.40;99.90;;;;;;5017812;28;20038;-59
2022/06/21 01:16:16;;;;;;;0.00;0.00;;;12.40;99.90;;;;;;5018909;28;20460;-58
2022/06/21 01:18:43;;;;;;;0.00;0.00;;;12.30;99.90;;;;;;5017406;28;20050;-59
2022/06/21 01:21:11;;;;;;;0.00;0.00;;;12.30;99.90;;;;;;5018605;28;20103;-58
2022/06/21 01:24:08;;;;;;;0.00;0.00;;;12.40;99.90;;;;;;5017963;28;20042;-60
2022/06/21 01:26:53;;;;;;;0.00;0.00;;;12.30;99.90;;;;;;5018556;28;20115;-60
2022/06/21 01:29:22;;;;;;;0.00;0.00;;;12.20;99.90;;;;;;5018599;28;20041;-60
2022/06/21 01:31:49;;;;;;;0.00;0.00;;;12.20;99.90;;;;;;5018838;28;20037;-59
2022/06/21 01:34:24;;;;;;;0.00;0.00;;;12.10;99.90;;;;;;5017766;28;20079;-60
2022/06/21 01:37:15;;;;;;;0.00;0.00;;;12.10;99.90;;;;;;5017619;28;20173;-60
2022/06/21 01:40:19;;;;;;;0.00;0.00;;;12.10;99.90;;;;;;5017987;28;20045;-59
2022/06/21 01:42:50;;;;;;;0.00;0.00;;;12.10;99.90;;;;;;4996267;28;20046;-59
2022/06/21 01:45:31;;;;;;;0.00;0.00;;;12.10;99.90;;;;;;5020978;28;20068;-59
2022/06/21 01:48:16;;;;;;;0.00;0.00;;;12.00;99.90;;;;;;5020575;28;20041;-59
2022/06/21 01:50:44;;;;;;;0.00;0.00;;;12.00;99.90;;;;;;5019078;28;20110;-58
2022/06/21 01:53:10;;;;;;;0.00;0.00;;;12.00;99.90;;;;;;5018129;28;20038;-60
2022/06/21 01:55:52;;;;;;;0.00;0.00;;;11.90;99.90;;;;;;5018324;28;20095;-59
2022/06/21 01:58:21;;;;;;;0.00;0.00;;;11.90;99.90;;;;;;5018077;28;20182;-59
2022/06/21 02:00:56;;;;;;;0.00;0.00;;;11.90;99.90;;;;;;5017125;28;20060;-61
2022/06/21 02:03:28;;;;;;;0.00;0.00;;;11.90;99.90;;;;;;5015130;28;20103;-59
2022/06/21 02:05:57;;;;;;;0.00;0.00;;;11.90;99.90;;;;;;5018398;28;20447;-60
2022/06/21 02:08:32;;;;;;;0.00;0.00;;;11.90;99.90;;;;;;5018035;28;20069;-59
2022/06/21 02:11:01;;;;;;;0.00;0.00;;;11.80;99.90;;;;;;5017506;28;20467;-59
2022/06/21 02:16:49;;;;;;;0.00;0.00;;;11.70;99.90;;;;;;5015767;28;20048;-59
2022/06/21 02:19:38;;;;;;;0.00;0.00;;;11.70;99.90;;;;;;5017319;28;20523;-59
2022/06/21 02:22:05;;;;;;;0.00;0.00;;;11.70;99.90;;;;;;5017929;28;20041;-60
2022/06/21 02:24:31;;;;;;;0.00;0.00;;;11.60;99.90;;;;;;5017650;28;20120;-60
2022/06/21 02:27:01;;;;;;;0.00;0.00;;;11.60;99.90;;;;;;5015353;28;20077;-59
2022/06/21 02:29:27;;;;;;;0.00;0.00;;;11.50;99.90;;;;;;5017833;28;20052;-59
2022/06/21 02:31:53;;;;;;;0.00;0.00;;;11.50;99.90;;;;;;5018002;28;20048;-59
2022/06/21 02:34:24;;;;;;;0.00;0.00;;;11.50;99.90;;;;;;5015263;28;20404;-58
2022/06/21 02:36:57;;;;;;;0.00;0.00;;;11.40;99.90;;;;;;5018120;28;20084;-59
2022/06/21 02:39:26;;;;;;;0.00;0.00;;;11.30;99.90;;;;;;5017539;28;20053;-59
2022/06/21 02:42:02;;;;;;;0.00;0.00;;;11.40;99.90;;;;;;5017138;28;20034;-58
2022/06/21 02:44:48;;;;;;;0.00;0.00;;;11.40;99.90;;;;;;5020242;28;20048;-59
2022/06/21 02:47:24;;;;;;;0.00;0.00;;;11.40;99.90;;;;;;5031163;28;20044;-59
2022/06/21 02:49:59;;;;;;;0.00;0.00;;;11.40;99.90;;;;;;5041216;28;20060;-58
2022/06/21 02:52:32;;;;;;;0.00;0.00;;;11.30;99.90;;;;;;5041326;28;20166;-59
2022/06/21 02:55:05;;;;;;;0.00;0.00;;;11.30;99.90;;;;;;5041106;28;20063;-59
2022/06/21 02:57:44;;;;;;;0.00;0.00;;;11.20;99.90;;;;;;5041337;28;20048;-58
2022/06/21 03:00:17;;;;;;;0.00;0.00;;;11.20;99.90;;;;;;5040640;28;20037;-58
2022/06/21 03:02:44;;;;;;;0.00;0.00;;;11.10;99.90;;;;;;5040617;28;20115;-60
2022/06/21 03:05:22;;;;;;;0.00;0.00;;;11.00;99.90;;;;;;5040579;28;20399;-59
2022/06/21 03:07:55;;;;;;;0.00;0.00;;;11.00;99.90;;;;;;5040221;28;20041;-59
2022/06/21 03:10:32;;;;;;;0.00;0.00;;;10.90;99.90;;;;;;5041227;28;20078;-60
2022/06/21 03:13:41;;;;;;;0.00;0.00;;;10.90;99.90;;;;;;5040664;28;20446;-59
2022/06/21 03:16:13;;;;;;;0.00;0.00;;;10.80;99.90;;;;;;5028607;28;20060;-59
2022/06/21 03:18:48;;;;;;;0.00;0.00;;;10.80;99.90;;;;;;5040243;28;20194;-60
2022/06/21 03:21:15;;;;;;;0.00;0.00;;;10.70;99.90;;;;;;5041171;28;20045;-58
2022/06/21 03:23:44;;;;;;;0.00;0.00;;;10.60;99.90;;;;;;5041201;28;20029;-60
2022/06/21 03:26:12;;;;;;;0.00;0.00;;;10.60;99.90;;;;;;5040314;28;20351;-59
2022/06/21 03:28:46;;;;;;;0.00;0.00;;;10.60;99.90;;;;;;5039854;28;20226;-59
2022/06/21 03:31:20;;;;;;;0.00;0.00;;;10.60;99.90;;;;;;5040650;28;20037;-58
2022/06/21 03:33:49;;;;;;;0.00;0.00;;;10.50;99.90;;;;;;5038744;28;20091;-59
2022/06/21 03:36:19;;;;;;;0.00;0.00;;;10.50;99.90;;;;;;5040944;28;20305;-58
2022/06/21 03:38:54;;;;;;;0.00;0.00;;;10.50;99.90;;;;;;5040168;28;20049;-59
2022/06/21 03:44:28;;;;;;;0.00;0.00;;;10.60;99.90;;;;;;5038156;28;20149;-59
2022/06/21 03:47:17;;;;;;;0.00;0.00;;;10.50;99.90;;;;;;5028917;28;20041;-59
2022/06/21 03:49:46;;;;;;;0.00;0.00;;;10.50;99.90;;;;;;5020066;28;20065;-59
2022/06/21 03:52:42;;;;;;;0.00;0.00;;;10.40;99.90;;;;;;5020960;28;20065;-59
2022/06/21 03:55:22;;;;;;;0.00;0.00;;;10.40;99.90;;;;;;5020612;28;20048;-58
2022/06/21 03:58:00;;;;;;;0.00;0.00;;;10.50;99.90;;;;;;5019522;28;20056;-59
2022/06/21 04:00:32;;;;;;;0.00;0.00;;;10.40;99.90;;;;;;5018727;28;20049;-59
2022/06/21 04:03:09;;;;;;;0.00;0.00;;;10.40;99.90;;;;;;5019454;28;20061;-58
2022/06/21 04:05:51;;;;;;;0.00;0.00;;;10.50;99.90;;;;;;5019281;28;20045;-59
2022/06/21 04:08:30;;;;;;;0.00;0.00;;;10.50;99.90;;;;;;5019855;28;20045;-59
2022/06/21 04:11:14;;;;;;;0.10;0.10;;;10.50;99.90;;;;;;5018158;28;20046;-59
2022/06/21 04:13:54;;;;;;;0.00;0.00;;;10.50;99.90;;;;;;5020606;28;20318;-58
2022/06/21 04:16:29;;;;;;;0.00;0.00;;;10.50;99.90;;;;;;5017751;28;20057;-58
2022/06/21 04:19:21;;;;;;;0.00;0.00;;;10.40;99.90;;;;;;5034373;28;20099;-59
2022/06/21 04:22:00;;;;;;;0.00;0.00;;;10.50;99.90;;;;;;5019233;28;20047;-60
2022/06/21 04:24:34;;;;;;;0.00;0.00;;;10.40;99.90;;;;;;5019964;28;20053;-59
2022/06/21 04:27:16;;;;;;;0.00;0.00;;;10.40;99.90;;;;;;5019279;28;20033;-59
2022/06/21 04:29:41;;;;;;;0.00;0.00;;;10.40;99.90;;;;;;5020552;28;20053;-59
2022/06/21 04:32:10;;;;;;;0.00;0.00;;;10.50;99.90;;;;;;5019626;28;20317;-59
2022/06/21 04:34:51;;;;;;;0.00;0.00;;;10.50;99.90;;;;;;5018263;28;20052;-60
2022/06/21 04:37:22;;;;;;;0.00;0.00;;;10.50;99.90;;;;;;5019351;28;20140;-58
2022/06/21 04:40:15;;;;;;;0.00;0.00;;;10.60;99.90;;;;;;5019843;28;20492;-59
2022/06/21 04:42:54;;;;;;;0.00;0.00;;;10.70;99.90;;;;;;5019911;28;20064;-59
2022/06/21 04:45:54;;;;;;;0.00;0.00;;;10.80;99.90;;;;;;5025239;28;20118;-58
2022/06/21 04:48:42;;;;;;;0.00;0.00;;;10.80;99.90;;;;;;5018854;28;20073;-58
2022/06/21 04:51:48;;;;;;;0.00;0.00;;;10.90;99.90;;;;;;5019549;28;20045;-59
2022/06/21 04:54:22;;;;;;;;;;;11.00;99.90;;;;;;5000826;28;20088;-58
2022/06/21 04:57:26;;;;;;;0.00;0.00;;;11.20;99.90;;;;;;5019385;28;20683;-59
2022/06/21 04:59:56;;;;;;;0.00;0.00;;;11.30;99.90;;;;;;4999701;28;20138;-59
2022/06/21 05:02:37;;;;;;;0.00;0.00;;;11.60;99.90;;;;;;5017843;28;20128;-58
2022/06/21 05:05:15;;;;;;;0.00;0.00;;;12.00;99.90;;;;;;5019017;28;20334;-59
2022/06/21 05:08:16;;;;;;;0.00;0.00;;;12.50;99.90;;;;;;5019573;28;20037;-60
2022/06/21 05:10:46;;;;;;;0.00;0.00;;;13.30;99.90;;;;;;5019354;28;20404;-58
2022/06/21 05:13:24;;;;;;;0.10;0.03;;;14.00;99.90;;;;;;5018537;28;20091;-59
2022/06/21 05:15:51;;;;;;;0.00;0.00;;;14.30;99.90;;;;;;5019022;28;20046;-59
2022/06/21 05:18:32;;;;;;;0.00;0.00;;;14.50;99.90;;;;;;5017919;28;20383;-59
2022/06/21 05:21:03;;;;;;;0.00;0.00;;;14.70;99.90;;;;;;5018534;28;20382;-59
2022/06/21 05:23:30;;;;;;;0.00;0.00;;;15.00;99.90;;;;;;5019087;28;20072;-59
2022/06/21 05:26:00;;;;;;;0.00;0.00;;;14.90;99.90;;;;;;5017443;28;20586;-59
2022/06/21 05:28:44;;;;;;;0.00;0.00;;;14.90;99.90;;;;;;5017918;28;20049;-59
2022/06/21 05:31:20;;;;;;;0.00;0.00;;;14.90;99.90;;;;;;5018432;28;20038;-59
2022/06/21 05:34:04;;;;;;;0.00;0.00;;;15.10;99.90;;;;;;5017386;28;20037;-59
2022/06/21 05:36:40;;;;;;;0.00;0.00;;;14.90;99.90;;;;;;5018722;28;20060;-59
2022/06/21 05:39:22;;;;;;;0.00;0.00;;;14.80;99.90;;;;;;5017370;28;20053;-59
2022/06/21 05:41:51;;;;;;;0.00;0.00;;;15.10;99.90;;;;;;5018705;28;20037;-59
2022/06/21 05:44:36;;;;;;;0.00;0.00;;;15.10;99.90;;;;;;5020412;28;20120;-60
2022/06/21 05:47:36;;;;;;;0.00;0.00;;;15.20;99.90;;;;;;5027145;28;20121;-58
2022/06/21 05:50:06;;;;;;;1.40;0.10;;;15.80;99.90;;;;;;5016978;28;20102;-59
2022/06/21 05:52:40;;;;;;;0.00;0.00;;;16.30;99.90;;;;;;5018130;28;20056;-59
2022/06/21 05:55:28;;;;;;;0.00;0.00;;;16.70;99.90;;;;;;5017493;28;20049;-60
2022/06/21 05:58:01;;;;;;;0.00;0.00;;;17.20;99.90;;;;;;5018454;28;20235;-59
2022/06/21 06:00:42;;;;;;;0.10;0.10;;;18.00;99.90;;;;;;5017256;28;20099;-59
2022/06/21 06:03:19;;;;;;;0.00;0.00;;;17.60;99.90;;;;;;5017200;28;20455;-59
2022/06/21 06:05:47;;;;;;;0.00;0.00;;;17.50;99.90;;;;;;5018218;28;20084;-59
2022/06/21 06:08:30;;;;;;;0.00;0.00;;;17.30;99.90;;;;;;5018733;28;20052;-59
2022/06/21 06:10:57;;;;;;;0.00;0.00;;;17.20;99.90;;;;;;5017963;28;20045;-57
2022/06/21 06:13:31;;;;;;;0.00;0.00;;;17.30;99.90;;;;;;5017256;28;20407;-59
2022/06/21 06:16:02;;;;;;;0.00;0.00;;;17.90;99.90;;;;;;5016763;28;20063;-59
2022/06/21 06:18:27;;;;;;;0.00;0.00;;;18.10;99.90;;;;;;5017346;28;20037;-59
2022/06/21 06:20:56;;;;;;;0.00;0.00;;;18.40;99.90;;;;;;5014928;28;20075;-59
2022/06/21 06:23:42;;;;;;;0.00;0.00;;;18.30;99.90;;;;;;5017531;28;20435;-59
2022/06/21 06:26:27;;;;;;;0.00;0.00;;;18.00;99.90;;;;;;5017203;28;20099;-59
2022/06/21 06:29:18;;;;;;;0.00;0.00;;;17.90;99.90;;;;;;5017669;28;20037;-59
2022/06/21 06:32:10;;;;;;;0.20;0.20;;;17.70;99.90;;;;;;5017575;28;20041;-59
2022/06/21 06:34:40;;;;;;;0.00;0.00;;;17.50;99.90;;;;;;5018060;28;20224;-59
2022/06/21 06:37:12;;;;;;;0.00;0.00;;;16.80;99.90;;;;;;5017199;28;20102;-59
2022/06/21 06:39:38;;;;;;;0.00;0.00;;;16.20;99.90;;;;;;5017856;28;20088;-59
2022/06/21 06:42:25;;;;;;;0.00;0.00;;;15.80;99.90;;;;;;5017680;28;20135;-59
2022/06/21 06:45:02;;;;;;;0.00;0.00;;;16.20;99.90;;;;;;5020819;28;20106;-58
2022/06/21 06:47:39;;;;;;;0.00;0.00;;;16.60;99.90;;;;;;5022663;28;20508;-58
2022/06/21 06:50:19;;;;;;;0.00;0.00;;;16.80;99.90;;;;;;5017690;28;20087;-59
2022/06/21 06:52:47;;;;;;;0.00;0.00;;;17.30;99.90;;;;;;5018325;28;20456;-60
2022/06/21 06:55:37;;;;;;;0.00;0.00;;;17.30;99.90;;;;;;5017274;28;20053;-58
2022/06/21 06:58:22;;;;;;;0.00;0.00;;;17.40;99.90;;;;;;5017229;28;20045;-60
2022/06/21 07:00:52;;;;;;;0.00;0.00;;;17.80;99.90;;;;;;5017691;28;20547;-59
2022/06/21 07:03:26;;;;;;;0.10;0.10;;;18.50;99.90;;;;;;5016588;28;20053;-58
2022/06/21 07:06:15;;;;;;;0.00;0.00;;;19.10;99.90;;;;;;5016891;28;20093;-59
2022/06/21 07:08:50;;;;;;;0.00;0.00;;;19.70;99.90;;;;;;5018131;28;20073;-59
2022/06/21 07:11:23;;;;;;;;;;;20.10;99.90;;;;;;5017303;28;20081;-59
2022/06/21 07:13:49;;;;;;;0.00;0.00;;;20.50;99.90;;;;;;5017638;28;19929;-59
2022/06/21 07:16:20;;;;;;;0.10;0.10;;;20.40;99.90;;;;;;5017955;28;20052;-59
2022/06/21 07:18:49;;;;;;;0.00;0.00;;;20.50;99.90;;;;;;5014602;28;20057;-59
2022/06/21 07:21:15;;;;;;;0.00;0.00;;;20.30;99.90;;;;;;5016389;28;20046;-59
2022/06/21 07:23:43;;;;;;;0.00;0.00;;;20.50;99.90;;;;;;5018346;28;20080;-58
2022/06/21 07:26:32;;;;;;;0.00;0.00;;;20.40;99.90;;;;;;5017280;28;20041;-59
2022/06/21 07:29:17;;;;;;;0.00;0.00;;;20.30;99.90;;;;;;5017223;28;20057;-58
2022/06/21 07:31:45;;;;;;;;;;;20.20;99.90;;;;;;5017796;28;20139;-58
2022/06/21 07:34:17;;;;;;;0.00;0.00;;;20.50;99.90;;;;;;5020439;28;20184;-59
2022/06/21 07:36:49;;;;;;;0.00;0.00;;;19.60;99.90;;;;;;5036900;28;20045;-62
2022/06/21 07:39:48;;;;;;;0.00;0.00;;;18.80;99.90;;;;;;5018707;28;20051;-59
2022/06/21 07:42:43;;;;;;;0.00;0.00;;;18.40;99.90;;;;;;5020738;28;20101;-60
2022/06/21 07:45:38;;;;;;;0.00;0.00;;;18.30;99.90;;;;;;5026084;28;20051;-59
2022/06/21 07:48:28;;;;;;;0.00;0.00;;;17.80;99.90;;;;;;5016645;28;20057;-59
2022/06/21 07:51:04;;;;;;;0.00;0.00;;;18.00;99.90;;;;;;5020357;28;20144;-59
2022/06/21 07:53:43;;;;;;;0.00;0.00;;;18.40;99.90;;;;;;5020578;28;20045;-59
2022/06/21 07:56:34;;;;;;;0.00;0.00;;;18.40;99.90;;;;;;5020156;28;20172;-58
2022/06/21 07:59:22;;;;;;;0.00;0.00;;;18.10;99.90;;;;;;5018794;28;20045;-59
2022/06/21 08:08:34;;;;;;;0.00;0.00;;;18.20;99.90;;;;;;5029406;28;20052;-58
2022/06/21 08:11:17;;;;;;;;;;;18.40;99.90;;;;;;5040119;28;20139;-58
2022/06/21 08:13:43;;;;;;;0.00;0.00;;;18.50;99.90;;;;;;5039162;28;19935;-58
2022/06/21 08:16:21;;;;;;;0.00;0.00;;;18.60;99.90;;;;;;5039596;28;20060;-59
2022/06/21 08:19:01;;;;;;;1.00;0.70;;;17.90;99.90;;;;;;5039556;28;20140;-59
2022/06/21 08:21:37;;;;;;;0.00;0.00;;;17.70;99.90;;;;;;5028555;28;20688;-57
2022/06/21 08:24:10;;;;;;;0.00;0.00;;;18.20;99.90;;;;;;5039356;28;20045;-59
2022/06/21 08:26:57;;;;;;;0.00;0.00;;;18.20;99.90;;;;;;5038170;28;20109;-60
2022/06/21 08:30:06;;;;;;;0.00;0.00;;;18.50;99.90;;;;;;5039200;28;20037;-60
2022/06/21 08:32:33;;;;;;;0.00;0.00;;;19.10;99.90;;;;;;5038395;28;20047;-59
2022/06/21 08:35:28;;;;;;;0.00;0.00;;;19.10;99.90;;;;;;5039530;28;20529;-59
2022/06/21 08:38:07;;;;;;;0.10;0.10;;;19.30;99.90;;;;;;5039892;28;20068;-59
2022/06/21 08:40:49;;;;;;;0.00;0.00;;;18.80;99.90;;;;;;5038431;28;20139;-59
2022/06/21 08:43:38;;;;;;;0.00;0.00;;;19.10;99.90;;;;;;5039454;28;20029;-60
2022/06/21 08:46:11;;;;;;;0.00;0.00;;;19.20;99.90;;;;;;5031250;28;20071;-59
2022/06/21 08:49:04;;;;;;;0.00;0.00;;;20.00;99.90;;;;;;5018636;28;20514;-60
2022/06/21 08:51:58;;;;;;;0.00;0.00;;;19.80;99.90;;;;;;5001733;28;20048;-60
2022/06/21 08:54:37;;;;;;;0.00;0.00;;;19.90;99.90;;;;;;5018783;28;20045;-59
2022/06/21 08:57:37;;;;;;;0.00;0.00;;;20.40;99.90;;;;;;5019692;28;20049;-59
2022/06/21 09:00:25;;;;;;;0.00;0.00;;;20.10;99.90;;;;;;5016864;28;20088;-59
2022/06/21 09:03:00;;;;;;;0.00;0.00;;;20.00;99.90;;;;;;5018276;28;20060;-59
2022/06/21 09:05:31;;;;;;;;;;;19.90;99.90;;;;;;5019582;28;20551;-60
2022/06/21 09:08:15;;;;;;;0.00;0.00;;;20.10;99.90;;;;;;5018016;28;19928;-59
2022/06/21 09:11:22;;;;;;;0.00;0.00;;;20.30;99.90;;;;;;5018789;28;20045;-59
2022/06/21 09:14:20;;;;;;;0.08;0.08;;;20.60;99.90;;;;;;4976161;28;20034;-60
2022/06/21 09:16:59;;;;;;;0.00;0.00;;;20.20;99.90;;;;;;5018311;28;20057;-59
2022/06/21 09:19:43;;;;;;;0.00;0.00;;;19.60;99.90;;;;;;5018821;28;20474;-59
2022/06/21 09:22:15;;;;;;;0.32;0.20;;;19.10;99.90;;;;;;5019089;28;20046;-59
2022/06/21 09:24:58;;;;;;;0.00;0.00;;;19.20;99.90;;;;;;5018831;28;20085;-60
2022/06/21 09:27:47;;;;;;;0.00;0.00;;;19.40;99.90;;;;;;5018741;28;20103;-59
2022/06/21 09:30:29;;;;;;;0.30;0.08;;;19.90;99.90;;;;;;5018815;28;20095;-60
2022/06/21 09:32:59;;;;;;;0.00;0.00;;;19.50;99.90;;;;;;5017719;28;20049;-59
2022/06/21 09:35:53;;;;;;;0.00;0.00;;;19.90;99.90;;;;;;5018518;28;20068;-59
2022/06/21 09:38:22;;;;;;;0.00;0.00;;;20.40;99.90;;;;;;5018219;28;20395;-59
2022/06/21 09:41:15;;;;;;;0.00;0.00;;;21.50;99.90;;;;;;5018370;28;20050;-60
2022/06/21 09:44:02;;;;;;;0.00;0.00;;;22.10;99.90;;;;;;5018954;28;20049;-60
2022/06/21 09:46:34;;;;;;;0.00;0.00;;;22.60;99.90;;;;;;5026982;28;20053;-60
2022/06/21 09:49:16;;;;;;;0.00;0.00;;;23.00;99.90;;;;;;5036809;28;20059;-60
2022/06/21 09:51:51;;;;;;;0.00;0.00;;;22.70;99.90;;;;;;5038542;28;20076;-59
2022/06/21 09:54:34;;;;;;;0.00;0.00;;;22.50;99.90;;;;;;5037953;28;20041;-59
2022/06/21 09:57:17;;;;;;;0.43;0.10;;;21.90;99.90;;;;;;5037648;28;20041;-60
2022/06/21 10:00:07;;;;;;;0.00;0.00;;;21.50;99.90;;;;;;5038572;28;20116;-59
2022/06/21 10:03:11;;;;;;;0.00;0.00;;;21.70;99.90;;;;;;5037207;28;20053;-60
2022/06/21 10:05:47;;;;;;;0.00;0.00;;;21.70;99.90;;;;;;5036656;28;20052;-60
2022/06/21 10:08:28;;;;;;;0.00;0.00;;;21.70;99.90;;;;;;5036979;28;20052;-59
2022/06/21 10:10:56;;;;;;;0.00;0.00;;;22.10;99.90;;;;;;5037973;28;20078;-60
2022/06/21 10:13:28;;;;;;;0.00;0.00;;;22.40;99.90;;;;;;5036382;28;20040;-60
2022/06/21 10:16:18;;;;;;;0.00;0.00;;;22.60;99.90;;;;;;5038022;28;20404;-60
2022/06/21 10:19:28;;;;;;;0.00;0.00;;;22.80;99.90;;;;;;5037412;28;20098;-59
2022/06/21 10:21:56;;;;;;;0.00;0.00;;;21.90;99.90;;;;;;5032500;28;20060;-59
2022/06/21 10:24:33;;;;;;;0.00;0.00;;;21.80;99.90;;;;;;5037514;28;20052;-59
2022/06/21 10:27:01;;;;;;;0.00;0.00;;;21.50;99.90;;;;;;5037355;28;20037;-59
2022/06/21 10:29:56;;;;;;;0.00;0.00;;;21.60;99.90;;;;;;5053075;28;20053;-60
2022/06/21 10:32:46;;;;;;;0.00;0.00;;;21.90;99.90;;;;;;5031706;28;20061;-58
2022/06/21 10:35:31;;;;;;;0.00;0.00;;;22.00;99.90;;;;;;5037939;28;20038;-58
2022/06/21 10:38:11;;;;;;;0.03;0.00;;;22.90;99.90;;;;;;5037619;28;20044;-59
2022/06/21 10:41:01;;;;;;;0.00;0.00;;;23.40;99.90;;;;;;5037063;28;20140;-59
2022/06/21 10:43:35;;;;;;;0.35;0.10;;;23.60;99.90;;;;;;5037512;28;20439;-59
2022/06/21 10:46:07;;;;;;;0.00;0.00;;;23.80;99.90;;;;;;5028910;28;20048;-59
2022/06/21 10:48:52;;;;;;;0.00;0.00;;;24.10;99.90;;;;;;5017009;28;20049;-58
2022/06/21 10:51:32;;;;;;;0.00;0.00;;;24.20;99.90;;;;;;5016315;28;20518;-58
2022/06/21 10:54:13;;;;;;;0.00;0.00;;;24.00;99.90;;;;;;5017796;28;20078;-58
2022/06/21 10:57:12;;;;;;;0.00;0.00;;;23.70;99.90;;;;;;5017764;28;20061;-62
2022/06/21 11:02:56;;;;;;;0.00;0.00;;;24.20;99.90;;;;;;5017339;28;20058;-59
2022/06/21 11:05:46;;;;;;;0.00;0.00;;;24.00;99.90;;;;;;5016687;28;20542;-59
2022/06/21 11:08:38;;;;;;;0.10;0.00;;;24.10;99.90;;;;;;5019978;28;20056;-59
2022/06/21 11:11:13;;;;;;;0.00;0.00;;;24.20;99.90;;;;;;5021460;28;20161;-59
2022/06/21 11:14:12;;;;;;;0.00;0.00;;;24.40;99.90;;;;;;5019915;28;20104;-59
2022/06/21 11:16:51;;;;;;;0.00;0.00;;;24.40;99.90;;;;;;5019372;28;20083;-59
2022/06/21 11:19:35;;;;;;;0.00;0.00;;;24.50;99.90;;;;;;5020209;28;20103;-59
2022/06/21 11:22:36;;;;;;;0.00;0.00;;;25.00;99.90;;;;;;5020913;28;20056;-58
2022/06/21 11:25:15;;;;;;;0.00;0.00;;;25.00;99.90;;;;;;5011543;28;20069;-58
2022/06/21 11:28:12;;;;;;;0.00;0.00;;;24.60;99.90;;;;;;5019982;28;20396;-59
2022/06/21 11:31:16;;;;;;;0.00;0.00;;;24.40;99.90;;;;;;5019823;28;20060;-59
2022/06/21 11:34:02;;;;;;;0.00;0.00;;;24.20;99.90;;;;;;5021225;28;20049;-59
2022/06/21 11:36:35;;;;;;;0.00;0.00;;;23.90;99.90;;;;;;5019989;28;20061;-53
2022/06/21 11:39:28;;;;;;;0.00;0.00;;;24.30;99.90;;;;;;5020562;28;20293;-59
2022/06/21 11:42:06;;;;;;;0.00;0.00;;;24.10;99.90;;;;;;5016562;28;20041;-59
2022/06/21 11:45:01;;;;;;;0.00;0.00;;;24.10;99.90;;;;;;5031128;28;20499;-60
2022/06/21 11:47:54;;;;;;;0.00;0.00;;;23.60;99.90;;;;;;5019671;28;20041;-59
2022/06/21 11:50:46;;;;;;;0.00;0.00;;;23.40;99.90;;;;;;5027595;28;20116;-58
2022/06/21 11:53:15;;;;;;;0.00;0.00;;;22.30;99.90;;;;;;5019982;28;20053;-58
2022/06/21 11:55:55;;;;;;;0.00;0.00;;;22.30;99.90;;;;;;5019383;28;20072;-59
2022/06/21 11:58:42;;;;;;;0.00;0.00;;;22.90;99.90;;;;;;5019741;28;20049;-59
2022/06/21 12:01:13;;;;;;;0.05;0.00;;;22.90;99.90;;;;;;5027292;28;20045;-58
2022/06/21 12:03:47;;;;;;;0.00;0.00;;;23.10;99.90;;;;;;5054852;28;20530;-59
2022/06/21 12:06:40;;;;;;;0.00;0.00;;;22.80;99.90;;;;;;5040357;28;20063;-60
2022/06/21 12:09:23;;;;;;;0.00;0.00;;;22.40;99.90;;;;;;5035563;28;20065;-58
2022/06/21 12:11:58;;;;;;;0.00;0.00;;;22.90;99.90;;;;;;5040412;28;20037;-59
2022/06/21 12:14:49;;;;;;;0.00;0.00;;;23.00;99.90;;;;;;5039635;28;20072;-58
2022/06/21 12:17:22;;;;;;;0.00;0.00;;;23.40;99.90;;;;;;5039470;28;20041;-59
2022/06/21 12:19:56;;;;;;;0.00;0.00;;;23.50;99.90;;;;;;5038628;28;20744;-59
2022/06/21 12:22:30;;;;;;;0.00;0.00;;;24.00;99.90;;;;;;5039631;28;20102;-61
2022/06/21 12:24:57;;;;;;;0.00;0.00;;;23.70;99.90;;;;;;5039032;28;20129;-58
2022/06/21 12:27:23;;;;;;;0.00;0.00;;;23.90;99.90;;;;;;5039893;28;20094;-59
2022/06/21 12:29:49;;;;;;;0.00;0.00;;;23.60;99.90;;;;;;5039771;28;20136;-60
2022/06/21 12:32:23;;;;;;;0.00;0.00;;;23.10;99.90;;;;;;5039506;28;20580;-55
2022/06/21 12:35:15;;;;;;;0.00;0.00;;;23.40;99.90;;;;;;5039726;28;20060;-59
2022/06/21 12:37:46;;;;;;;0.00;0.00;;;23.20;99.90;;;;;;5040012;28;20041;-59
2022/06/21 12:40:32;;;;;;;0.00;0.00;;;23.80;99.90;;;;;;5039658;28;20130;-58
2022/06/21 12:43:09;;;;;;;0.00;0.00;;;24.10;99.90;;;;;;5039392;28;20069;-58
2022/06/21 12:45:48;;;;;;;0.00;0.00;;;24.40;99.90;;;;;;5033084;28;20087;-59
2022/06/21 12:48:33;;;;;;;0.00;0.00;;;23.90;99.90;;;;;;5019401;28;20213;-58
2022/06/21 12:51:21;;;;;;;0.00;0.00;;;24.20;99.90;;;;;;5019359;28;20059;-58
2022/06/21 12:54:03;;;;;;;0.00;0.00;;;24.50;99.90;;;;;;5019401;28;20045;-59
2022/06/21 12:56:52;;;;;;;0.00;0.00;;;24.60;99.90;;;;;;5019390;28;20045;-59
2022/06/21 12:59:36;;;;;;;0.00;0.00;;;24.80;99.90;;;;;;5010679;28;20065;-59
2022/06/21 13:02:11;;;;;;;0.00;0.00;;;24.70;99.90;;;;;;5018271;28;20057;-59
2022/06/21 13:05:14;;;;;;;0.00;0.00;;;24.80;99.90;;;;;;5024240;28;20416;-59
2022/06/21 13:08:08;;;;;;;0.00;0.00;;;24.90;99.90;;;;;;5025085;28;20041;-59
2022/06/21 13:11:03;;;;;;;0.00;0.00;;;24.70;99.90;;;;;;5025808;28;20139;-60
2022/06/21 13:13:59;;;;;;;0.00;0.00;;;25.00;99.90;;;;;;5024747;28;20818;-60
2022/06/21 13:16:37;;;;;;;0.00;0.00;;;24.40;99.90;;;;;;5023548;28;20520;-59
2022/06/21 13:19:50;;;;;;;0.00;0.00;;;23.40;99.90;;;;;;5025378;28;20448;-58
2022/06/21 13:22:40;;;;;;;0.08;0.08;;;23.50;99.90;;;;;;5001603;28;20049;-59
2022/06/21 13:25:17;;;;;;;0.00;0.00;;;24.10;99.90;;;;;;5001845;28;20041;-57
2022/06/21 13:27:42;;;;;;;0.00;0.00;;;24.60;99.90;;;;;;5018995;28;20138;-58
2022/06/21 13:30:10;;;;;;;0.00;0.00;;;24.40;99.90;;;;;;5024177;28;20088;-57
2022/06/21 13:32:52;;;;;;;0.00;0.00;;;24.50;99.90;;;;;;5023500;28;20044;-57
2022/06/21 13:35:30;;;;;;;0.00;0.00;;;24.50;99.90;;;;;;5024175;28;20679;-58
2022/06/21 13:38:13;;;;;;;0.08;0.08;;;24.50;99.90;;;;;;5023349;28;20072;-58
2022/06/21 13:40:51;;;;;;;0.00;0.00;;;24.70;99.90;;;;;;5024357;28;20041;-57
2022/06/21 13:43:39;;;;;;;0.00;0.00;;;24.80;99.90;;;;;;5023209;28;20055;-59
2022/06/21 13:46:21;;;;;;;0.00;0.00;;;25.10;99.90;;;;;;5022767;28;20104;-57
2022/06/21 13:48:50;;;;;;;0.00;0.00;;;25.20;99.90;;;;;;5024201;28;20041;-57
2022/06/21 13:51:17;;;;;;;0.00;0.00;;;25.20;99.90;;;;;;5024623;28;20051;-58
2022/06/21 13:53:56;;;;;;;0.00;0.00;;;25.20;99.90;;;;;;5027326;28;20102;-59
2022/06/21 13:56:41;;;;;;;0.00;0.00;;;25.10;99.90;;;;;;5026493;28;20036;-58
2022/06/21 13:59:21;;;;;;;0.00;0.00;;;24.80;99.90;;;;;;5024294;28;20042;-59
2022/06/21 14:02:18;;;;;;;0.00;0.00;;;24.70;99.90;;;;;;5024010;28;20045;-59
2022/06/21 14:04:53;;;;;;;0.00;0.00;;;24.70;99.90;;;;;;5023175;28;20124;-58